Time;durP1;ratioP1;P1;durP2;ratioP2;P2;SDS_P1;SDS_P2;PMS_P1;PMS_P2;Temp;Humidity;BMP_temperature;BMP_pressure;BME280_temperature;BME280_humidity;BME280_pressure;Samples;Min_cycle;Max_cycle;Signal;HPM_P1;HPM_P2
2021/03/29 00:02:16;;;;;;;3.30;1.38;;;9.50;78.70;;;;;;5085719;28;20395;-70
2021/03/29 00:04:43;;;;;;;6.00;1.50;;;9.40;78.00;;;;;;5082880;28;20044;-70
2021/03/29 00:07:10;;;;;;;3.65;1.10;;;9.40;78.00;;;;;;5081947;28;20040;-70
2021/03/29 00:09:40;;;;;;;3.58;1.17;;;9.40;78.00;;;;;;5074858;28;20426;-69
2021/03/29 00:12:08;;;;;;;3.03;1.23;;;9.50;78.00;;;;;;5073355;28;20048;-70
2021/03/29 00:14:36;;;;;;;3.67;1.65;;;9.50;78.00;;;;;;5090241;28;20032;-69
2021/03/29 00:17:03;;;;;;;4.20;1.65;;;9.50;77.90;;;;;;5056608;28;20040;-70
2021/03/29 00:19:34;;;;;;;3.28;1.40;;;9.50;77.90;;;;;;5093537;28;20051;-69
2021/03/29 00:22:02;;;;;;;4.78;1.20;;;9.40;77.90;;;;;;5075459;28;20040;-71
2021/03/29 00:24:30;;;;;;;3.08;1.10;;;9.40;77.90;;;;;;5079672;28;20096;-70
2021/03/29 00:26:57;;;;;;;2.50;0.82;;;9.40;77.90;;;;;;5089056;28;20040;-69
2021/03/29 00:29:24;;;;;;;3.78;1.58;;;9.40;78.00;;;;;;5071961;28;20106;-74
2021/03/29 00:31:51;;;;;;;4.25;1.20;;;9.40;78.00;;;;;;5073201;28;20044;-69
2021/03/29 00:34:19;;;;;;;3.67;1.40;;;9.40;78.10;;;;;;5085419;28;20048;-70
2021/03/29 00:36:48;;;;;;;5.70;1.40;;;9.40;78.10;;;;;;5081309;28;20036;-71
2021/03/29 00:39:16;;;;;;;3.92;1.40;;;9.40;78.00;;;;;;5085169;28;20499;-70
2021/03/29 00:41:43;;;;;;;3.97;1.52;;;9.40;78.00;;;;;;5082542;28;20487;-71
2021/03/29 00:44:11;;;;;;;4.63;1.40;;;9.40;78.00;;;;;;5074578;28;20393;-71
2021/03/29 00:46:40;;;;;;;3.00;0.90;;;9.40;78.10;;;;;;5072764;28;20051;-71
2021/03/29 00:49:07;;;;;;;3.03;0.90;;;9.30;78.10;;;;;;5092874;28;20101;-71
2021/03/29 00:51:36;;;;;;;3.33;0.98;;;9.30;78.10;;;;;;5090325;28;20047;-70
2021/03/29 00:54:06;;;;;;;4.93;1.05;;;9.30;78.10;;;;;;5083734;28;20040;-69
2021/03/29 00:56:34;;;;;;;3.47;1.33;;;9.30;78.20;;;;;;5088077;28;20095;-70
2021/03/29 00:59:02;;;;;;;1.80;0.80;;;9.20;78.20;;;;;;5084888;28;20048;-71
2021/03/29 01:01:43;;;;;;;4.25;1.05;;;9.20;78.20;;;;;;5090900;28;20044;-70
2021/03/29 01:04:11;;;;;;;2.75;0.70;;;9.30;78.30;;;;;;5074194;28;20059;-70
2021/03/29 01:06:41;;;;;;;1.33;0.40;;;9.20;78.20;;;;;;5090467;28;20044;-70
2021/03/29 01:09:17;;;;;;;2.80;0.73;;;9.20;78.40;;;;;;5103131;28;20047;-70
2021/03/29 01:12:05;;;;;;;3.88;0.70;;;9.10;78.40;;;;;;5068196;28;20033;-70
2021/03/29 01:14:47;;;;;;;2.97;1.00;;;9.10;78.50;;;;;;5085829;28;20040;-70
2021/03/29 01:17:23;;;;;;;5.00;1.27;;;9.10;78.50;;;;;;5087324;28;20052;-72
2021/03/29 01:20:02;;;;;;;2.22;0.70;;;9.10;78.50;;;;;;5083387;28;20044;-72
2021/03/29 01:22:35;;;;;;;4.18;0.70;;;9.10;78.50;;;;;;5083531;28;20075;-72
2021/03/29 01:25:14;;;;;;;4.43;0.82;;;9.10;78.50;;;;;;5083289;28;20047;-70
2021/03/29 01:27:47;;;;;;;2.20;0.75;;;9.10;78.50;;;;;;5102246;28;20416;-70
2021/03/29 01:30:15;;;;;;;3.38;0.82;;;9.00;78.50;;;;;;5070744;28;20051;-70
2021/03/29 01:32:45;;;;;;;1.58;0.60;;;9.10;78.70;;;;;;5072225;28;20044;-70
2021/03/29 01:35:18;;;;;;;3.10;1.10;;;9.10;78.70;;;;;;5086897;28;20343;-72
2021/03/29 01:37:46;;;;;;;3.97;1.60;;;9.10;78.70;;;;;;5085174;28;20489;-71
2021/03/29 01:40:15;;;;;;;4.80;0.80;;;9.10;78.60;;;;;;5086934;28;20063;-71
2021/03/29 01:42:42;;;;;;;5.63;1.17;;;9.20;78.50;;;;;;5081632;28;20149;-72
2021/03/29 01:45:10;;;;;;;4.22;0.90;;;9.20;78.50;;;;;;5083386;28;20040;-72
2021/03/29 01:47:38;;;;;;;4.95;1.75;;;9.30;78.40;;;;;;5084947;28;20553;-71
2021/03/29 01:50:06;;;;;;;3.33;0.88;;;9.30;78.30;;;;;;5083982;28;20097;-71
2021/03/29 01:52:33;;;;;;;3.65;1.00;;;9.40;78.20;;;;;;5088172;28;20036;-71
2021/03/29 01:55:01;;;;;;;5.82;1.58;;;9.40;78.20;;;;;;5069659;28;20037;-69
2021/03/29 01:57:28;;;;;;;3.28;1.13;;;9.40;78.20;;;;;;5082003;28;20040;-69
2021/03/29 01:59:55;;;;;;;2.38;0.82;;;9.50;78.10;;;;;;5083369;28;20105;-69
2021/03/29 02:02:24;;;;;;;4.78;1.85;;;9.50;78.00;;;;;;5086455;28;20051;-69
2021/03/29 02:04:54;;;;;;;4.00;1.10;;;9.60;77.90;;;;;;5089563;28;20047;-69
2021/03/29 02:07:21;;;;;;;2.22;1.10;;;9.60;77.70;;;;;;5085144;28;20040;-69
2021/03/29 02:09:48;;;;;;;4.18;1.20;;;9.70;77.60;;;;;;5091216;28;20089;-69
2021/03/29 02:12:15;;;;;;;7.75;1.75;;;9.70;77.60;;;;;;5088230;28;20180;-69
2021/03/29 02:14:44;;;;;;;3.53;0.98;;;9.70;77.60;;;;;;5082174;28;20032;-69
2021/03/29 02:17:12;;;;;;;3.92;1.33;;;9.70;77.40;;;;;;5084351;28;20036;-69
2021/03/29 02:19:39;;;;;;;3.55;1.08;;;9.70;77.40;;;;;;5082050;28;20078;-69
2021/03/29 02:22:07;;;;;;;4.20;1.20;;;9.70;77.40;;;;;;5103322;28;20039;-69
2021/03/29 02:24:33;;;;;;;3.00;1.15;;;9.70;77.50;;;;;;5088350;28;20044;-69
2021/03/29 02:27:01;;;;;;;4.68;1.38;;;9.70;77.60;;;;;;5078891;28;20040;-69
2021/03/29 02:29:27;;;;;;;3.55;0.60;;;9.70;77.60;;;;;;5084807;28;20076;-69
2021/03/29 02:32:00;;;;;;;3.38;1.23;;;9.60;78.20;;;;;;5085203;28;20537;-69
2021/03/29 02:34:27;;;;;;;5.85;1.80;;;9.70;77.50;;;;;;5090308;28;20101;-69
2021/03/29 02:36:55;;;;;;;3.65;1.42;;;9.70;77.50;;;;;;5088725;28;20071;-69
2021/03/29 02:39:22;;;;;;;4.65;1.63;;;9.70;77.40;;;;;;5075912;28;20396;-75
2021/03/29 02:41:50;;;;;;;4.32;1.67;;;9.70;77.40;;;;;;5090003;28;20484;-75
2021/03/29 02:44:18;;;;;;;5.07;1.50;;;9.60;77.40;;;;;;5090307;28;20064;-75
2021/03/29 02:46:48;;;;;;;5.97;1.77;;;9.70;77.30;;;;;;5090488;28;20044;-75
2021/03/29 02:49:16;;;;;;;6.40;1.70;;;9.70;77.30;;;;;;5087418;28;20036;-75
2021/03/29 02:51:47;;;;;;;3.42;1.55;;;9.60;77.30;;;;;;5073350;28;20067;-75
2021/03/29 02:54:15;;;;;;;3.88;1.35;;;9.60;77.30;;;;;;5089926;28;20040;-75
2021/03/29 02:56:47;;;;;;;3.35;1.58;;;9.60;77.30;;;;;;5069273;28;20400;-75
2021/03/29 02:59:15;;;;;;;7.05;1.77;;;9.60;77.40;;;;;;5085933;28;20079;-75
2021/03/29 03:01:42;;;;;;;4.65;1.70;;;9.50;78.10;;;;;;5077265;28;20106;-75
2021/03/29 03:04:14;;;;;;;4.68;1.27;;;9.50;77.50;;;;;;5068257;28;20044;-75
2021/03/29 03:06:41;;;;;;;6.18;1.60;;;9.50;77.50;;;;;;5089786;28;20052;-69
2021/03/29 03:09:10;;;;;;;6.53;1.20;;;9.50;77.60;;;;;;5087388;28;20040;-75
2021/03/29 03:11:37;;;;;;;4.40;1.30;;;9.40;77.60;;;;;;5087097;28;20028;-74
2021/03/29 03:14:05;;;;;;;3.63;1.30;;;9.40;77.80;;;;;;5106073;28;20479;-75
2021/03/29 03:16:35;;;;;;;5.05;1.90;;;9.30;77.90;;;;;;5077845;28;20109;-75
2021/03/29 03:19:04;;;;;;;4.15;1.67;;;9.30;77.90;;;;;;5091037;28;20066;-74
2021/03/29 03:21:33;;;;;;;4.78;1.40;;;9.30;77.90;;;;;;5073228;28;20044;-75
2021/03/29 03:24:00;;;;;;;4.07;1.58;;;9.30;77.90;;;;;;5080607;28;20468;-74
2021/03/29 03:26:28;;;;;;;6.20;2.05;;;9.30;77.90;;;;;;5089037;28;20043;-76
2021/03/29 03:28:55;;;;;;;5.30;1.95;;;9.30;78.00;;;;;;5079203;28;20060;-74
2021/03/29 03:31:23;;;;;;;6.63;1.88;;;9.30;78.50;;;;;;5080408;28;20053;-76
2021/03/29 03:33:51;;;;;;;5.40;2.08;;;9.20;77.80;;;;;;5086945;28;20037;-75
2021/03/29 03:36:22;;;;;;;7.53;1.63;;;9.20;78.00;;;;;;5083926;28;20040;-69
2021/03/29 03:38:51;;;;;;;5.40;1.92;;;9.10;78.10;;;;;;5082645;28;20414;-69
2021/03/29 03:41:23;;;;;;;9.75;2.17;;;9.10;78.80;;;;;;5093172;28;20040;-69
2021/03/29 03:43:53;;;;;;;5.30;1.45;;;9.10;78.30;;;;;;5087966;28;20098;-69
2021/03/29 03:46:29;;;;;;;6.68;1.65;;;9.00;78.20;;;;;;5093397;28;20040;-69
2021/03/29 03:49:05;;;;;;;3.10;1.50;;;9.00;78.40;;;;;;5075515;28;20050;-69
2021/03/29 03:51:32;;;;;;;3.88;1.15;;;9.00;78.50;;;;;;5078186;28;20037;-69
2021/03/29 03:54:00;;;;;;;3.83;1.40;;;8.90;78.60;;;;;;5091412;28;20447;-69
2021/03/29 03:56:32;;;;;;;5.38;1.70;;;8.90;78.70;;;;;;5091099;28;20028;-69
2021/03/29 03:59:00;;;;;;;3.60;1.65;;;8.80;78.70;;;;;;5089506;28;20048;-74
2021/03/29 04:01:27;;;;;;;2.40;0.98;;;8.80;78.80;;;;;;5075461;28;20138;-75
2021/03/29 04:03:54;;;;;;;4.70;1.55;;;8.80;78.80;;;;;;5085723;28;20393;-74
2021/03/29 04:06:21;;;;;;;3.30;1.48;;;8.80;78.80;;;;;;5090832;28;20078;-74
2021/03/29 04:08:47;;;;;;;4.25;1.60;;;8.80;78.80;;;;;;5079691;28;20488;-69
2021/03/29 04:11:14;;;;;;;4.50;1.90;;;8.90;78.70;;;;;;5074833;28;20040;-69
2021/03/29 04:13:41;;;;;;;3.85;1.35;;;8.90;78.60;;;;;;5091505;28;20032;-69
2021/03/29 04:16:08;;;;;;;4.55;1.23;;;8.90;78.60;;;;;;5089283;28;20090;-69
2021/03/29 04:18:35;;;;;;;5.15;1.85;;;8.90;78.60;;;;;;5072428;28;20132;-69
2021/03/29 04:21:04;;;;;;;4.75;1.77;;;9.00;78.70;;;;;;5089753;28;20048;-69
2021/03/29 04:23:31;;;;;;;4.95;2.05;;;9.00;78.50;;;;;;5092187;28;20039;-69
2021/03/29 04:25:58;;;;;;;3.75;1.85;;;9.00;78.40;;;;;;5082155;28;20575;-69
2021/03/29 04:28:25;;;;;;;4.13;1.40;;;9.00;78.30;;;;;;5087156;28;20052;-69
2021/03/29 04:30:52;;;;;;;6.90;1.90;;;9.10;78.30;;;;;;5093178;28;20043;-69
2021/03/29 04:33:19;;;;;;;6.22;2.00;;;9.10;78.30;;;;;;5078821;28;20094;-69
2021/03/29 04:35:47;;;;;;;6.03;2.10;;;9.10;78.30;;;;;;5092295;28;20036;-69
2021/03/29 04:38:14;;;;;;;4.85;2.17;;;9.10;78.20;;;;;;5091751;28;20143;-69
2021/03/29 04:40:40;;;;;;;5.95;2.00;;;9.10;78.20;;;;;;5090996;28;20063;-69
2021/03/29 04:43:09;;;;;;;5.30;1.63;;;9.10;78.20;;;;;;5091821;28;20427;-69
2021/03/29 04:45:37;;;;;;;4.15;1.55;;;9.10;78.20;;;;;;5090915;28;20059;-69
2021/03/29 04:48:04;;;;;;;3.63;1.60;;;9.10;78.20;;;;;;5093205;28;20036;-69
2021/03/29 04:50:31;;;;;;;7.03;1.67;;;9.10;78.30;;;;;;5092121;28;20042;-69
2021/03/29 04:52:57;;;;;;;4.13;1.35;;;9.10;78.30;;;;;;5080997;28;20040;-69
2021/03/29 04:55:24;;;;;;;6.47;1.85;;;9.10;78.40;;;;;;5080459;28;20430;-69
2021/03/29 04:57:50;;;;;;;2.95;1.20;;;9.10;78.40;;;;;;5082115;28;20392;-69
2021/03/29 05:00:17;;;;;;;5.28;1.55;;;9.10;78.40;;;;;;5085862;28;20399;-69
2021/03/29 05:02:44;;;;;;;4.57;1.60;;;9.10;78.40;;;;;;5095526;28;20068;-69
2021/03/29 05:05:11;;;;;;;5.05;1.98;;;9.10;78.50;;;;;;5092093;28;20035;-69
2021/03/29 05:07:37;;;;;;;3.63;1.30;;;9.10;78.40;;;;;;5089852;28;20028;-69
2021/03/29 05:10:12;;;;;;;4.97;1.75;;;9.10;78.50;;;;;;5092298;28;20074;-69
2021/03/29 05:12:39;;;;;;;4.07;1.23;;;9.10;78.60;;;;;;5082087;28;20036;-69
2021/03/29 05:15:09;;;;;;;5.90;1.40;;;9.10;78.60;;;;;;5089524;28;20425;-69
2021/03/29 05:17:35;;;;;;;3.57;1.23;;;9.10;78.60;;;;;;5088058;28;20040;-69
2021/03/29 05:20:05;;;;;;;3.10;1.10;;;9.00;79.20;;;;;;5082617;28;20530;-69
2021/03/29 05:22:31;;;;;;;2.05;0.80;;;9.10;78.70;;;;;;5090731;28;20032;-69
2021/03/29 05:24:58;;;;;;;4.10;1.17;;;9.00;78.70;;;;;;5073187;28;20036;-69
2021/03/29 05:27:24;;;;;;;3.50;1.50;;;9.00;78.70;;;;;;5090969;28;20050;-70
2021/03/29 05:29:52;;;;;;;2.80;1.00;;;9.00;78.70;;;;;;5089892;28;20115;-69
2021/03/29 05:32:25;;;;;;;2.70;1.13;;;9.00;78.80;;;;;;5090802;28;20425;-75
2021/03/29 05:34:54;;;;;;;3.70;1.33;;;9.00;78.80;;;;;;5092268;28;20441;-75
2021/03/29 05:37:21;;;;;;;3.05;0.73;;;9.00;78.80;;;;;;5087587;28;20064;-75
2021/03/29 05:39:52;;;;;;;2.47;0.82;;;9.00;78.90;;;;;;5089401;28;20159;-76
2021/03/29 05:42:20;;;;;;;3.37;1.43;;;9.00;78.90;;;;;;5078396;28;20040;-77
2021/03/29 05:44:47;;;;;;;6.07;1.50;;;9.00;78.90;;;;;;5092805;28;20044;-77
2021/03/29 05:47:15;;;;;;;4.28;1.77;;;9.10;78.90;;;;;;5090488;28;20044;-75
2021/03/29 05:49:42;;;;;;;4.63;1.37;;;9.10;78.80;;;;;;5092705;28;20040;-75
2021/03/29 05:52:09;;;;;;;5.70;2.13;;;9.20;78.70;;;;;;5082265;28;20487;-69
2021/03/29 05:54:38;;;;;;;4.88;1.88;;;9.20;78.60;;;;;;5080040;28;20495;-69
2021/03/29 05:57:05;;;;;;;4.13;1.20;;;9.20;78.50;;;;;;5087952;28;20407;-69
2021/03/29 05:59:40;;;;;;;4.05;1.00;;;9.30;78.60;;;;;;5072863;28;20155;-70
2021/03/29 06:02:08;;;;;;;5.68;1.65;;;9.30;78.50;;;;;;5090575;28;20056;-69
2021/03/29 06:04:45;;;;;;;2.92;1.23;;;9.40;78.50;;;;;;5091568;28;20047;-69
2021/03/29 06:07:16;;;;;;;4.35;1.23;;;9.40;78.40;;;;;;5090624;28;20032;-75
2021/03/29 06:09:45;;;;;;;3.55;1.88;;;9.50;78.30;;;;;;5073223;28;20134;-75
2021/03/29 06:12:13;;;;;;;2.63;0.98;;;9.50;78.20;;;;;;5082754;28;20147;-75
2021/03/29 06:14:40;;;;;;;4.93;1.48;;;9.60;78.20;;;;;;5088400;28;20491;-75
2021/03/29 06:17:14;;;;;;;3.60;1.38;;;9.60;78.10;;;;;;5081896;28;20044;-69
2021/03/29 06:19:48;;;;;;;4.65;1.75;;;9.70;78.00;;;;;;5080660;28;20054;-69
2021/03/29 06:22:26;;;;;;;6.45;1.30;;;9.80;77.90;;;;;;5091874;28;20044;-69
2021/03/29 06:25:15;;;;;;;3.03;1.17;;;9.80;77.70;;;;;;5072527;28;20044;-69
2021/03/29 06:27:49;;;;;;;3.63;1.40;;;9.90;77.70;;;;;;5083025;28;20046;-69
2021/03/29 06:30:28;;;;;;;6.40;1.63;;;9.90;77.60;;;;;;5091010;28;20036;-69
2021/03/29 06:33:15;;;;;;;2.30;1.10;;;9.90;77.60;;;;;;5091285;28;20059;-69
2021/03/29 06:35:54;;;;;;;4.53;1.70;;;10.00;77.50;;;;;;5080238;28;20041;-69
2021/03/29 06:38:29;;;;;;;5.22;1.42;;;9.90;77.50;;;;;;5086584;28;20041;-69
2021/03/29 06:40:58;;;;;;;4.70;1.40;;;10.00;77.50;;;;;;5072626;28;20544;-69
2021/03/29 06:43:41;;;;;;;6.65;1.88;;;10.00;77.50;;;;;;5088263;28;20048;-69
2021/03/29 06:46:25;;;;;;;4.28;1.50;;;9.90;77.40;;;;;;5090663;28;20055;-69
2021/03/29 06:48:57;;;;;;;5.28;1.83;;;10.00;77.40;;;;;;5085140;28;20060;-69
2021/03/29 06:51:34;;;;;;;4.57;1.60;;;9.90;77.40;;;;;;5082967;28;20395;-69
2021/03/29 06:54:07;;;;;;;4.28;1.40;;;10.00;77.40;;;;;;5082639;28;20448;-68
2021/03/29 06:56:40;;;;;;;4.80;1.40;;;10.00;77.50;;;;;;5083830;28;20062;-69
2021/03/29 06:59:08;;;;;;;3.80;1.13;;;10.00;77.50;;;;;;5091334;28;20488;-68
2021/03/29 07:02:01;;;;;;;6.60;2.00;;;10.00;77.50;;;;;;5093185;28;20138;-69
2021/03/29 07:04:27;;;;;;;4.13;1.35;;;10.00;77.40;;;;;;5081992;28;20137;-68
2021/03/29 07:06:58;;;;;;;5.90;1.83;;;10.00;77.40;;;;;;5073604;28;20404;-68
2021/03/29 07:09:29;;;;;;;4.70;1.42;;;10.10;77.40;;;;;;5080617;28;20143;-69
2021/03/29 07:11:57;;;;;;;5.18;1.80;;;10.10;77.40;;;;;;5081455;28;20113;-69
2021/03/29 07:14:24;;;;;;;3.45;1.45;;;10.20;77.40;;;;;;5092182;28;20139;-68
2021/03/29 07:16:53;;;;;;;3.67;1.70;;;10.20;77.30;;;;;;5093380;28;20069;-68
2021/03/29 07:19:22;;;;;;;5.20;1.40;;;10.30;77.20;;;;;;5092800;28;20044;-68
2021/03/29 07:21:48;;;;;;;3.97;1.50;;;10.40;77.10;;;;;;5091100;28;20511;-68
2021/03/29 07:24:15;;;;;;;4.43;1.52;;;10.50;77.00;;;;;;5081264;28;20060;-68
2021/03/29 07:26:42;;;;;;;3.95;1.48;;;10.60;76.90;;;;;;5075326;28;20419;-68
2021/03/29 07:29:23;;;;;;;5.68;1.73;;;10.60;76.60;;;;;;5093094;28;20062;-68
2021/03/29 07:31:55;;;;;;;7.53;2.08;;;10.70;76.40;;;;;;5078290;28;20035;-68
2021/03/29 07:34:47;;;;;;;4.05;1.77;;;10.80;76.20;;;;;;5090237;28;20051;-68
2021/03/29 07:37:33;;;;;;;7.05;2.28;;;10.90;76.00;;;;;;5081895;28;20064;-68
2021/03/29 07:40:03;;;;;;;5.40;1.88;;;11.00;75.90;;;;;;5076980;28;20090;-68
2021/03/29 07:42:30;;;;;;;4.97;1.85;;;11.10;75.90;;;;;;5082788;28;20044;-68
2021/03/29 07:45:17;;;;;;;4.57;1.33;;;11.10;75.50;;;;;;5089385;28;20064;-68
2021/03/29 07:47:45;;;;;;;5.40;1.90;;;11.20;75.40;;;;;;5079841;28;20501;-68
2021/03/29 07:50:24;;;;;;;6.07;1.90;;;11.20;75.30;;;;;;5085610;28;20040;-68
2021/03/29 07:52:55;;;;;;;6.15;1.95;;;11.30;75.10;;;;;;5072425;28;21205;-68
2021/03/29 07:55:36;;;;;;;6.85;1.90;;;11.40;75.10;;;;;;5088231;28;20063;-68
2021/03/29 07:58:04;;;;;;;5.45;1.63;;;11.40;74.90;;;;;;5070756;28;20051;-68
2021/03/29 08:00:30;;;;;;;4.15;1.48;;;11.50;74.80;;;;;;5088200;28;20115;-68
2021/03/29 08:03:23;;;;;;;6.13;1.83;;;11.60;74.80;;;;;;5087461;28;20040;-68
2021/03/29 08:05:52;;;;;;;5.35;1.85;;;11.70;74.60;;;;;;5082547;28;20036;-68
2021/03/29 08:11:11;;;;;;;;;;;11.90;74.20;;;;;;5089614;28;20567;-68
2021/03/29 08:13:44;;;;;;;5.88;2.55;;;11.90;74.20;;;;;;5089694;28;19924;-68
2021/03/29 08:16:13;;;;;;;6.28;2.50;;;12.00;74.10;;;;;;5089127;28;20039;-69
2021/03/29 08:19:15;;;;;;;8.00;1.80;;;12.00;73.90;;;;;;5088289;28;20035;-68
2021/03/29 08:22:09;;;;;;;5.10;2.00;;;12.10;73.80;;;;;;5090340;28;20052;-69
2021/03/29 08:24:39;;;;;;;6.10;2.20;;;12.10;73.70;;;;;;5090419;28;20039;-68
2021/03/29 08:27:07;;;;;;;4.95;1.42;;;12.20;73.70;;;;;;5088801;28;20040;-69
2021/03/29 08:29:34;;;;;;;4.35;1.63;;;12.30;73.70;;;;;;5091164;28;20093;-69
2021/03/29 08:32:15;;;;;;;5.82;1.80;;;12.30;73.60;;;;;;5091363;28;20047;-69
2021/03/29 08:34:46;;;;;;;8.85;2.33;;;12.40;73.40;;;;;;5086092;28;20043;-69
2021/03/29 08:37:15;;;;;;;7.78;2.47;;;12.40;73.20;;;;;;5090249;28;20070;-69
2021/03/29 08:39:47;;;;;;;6.72;2.40;;;12.50;72.90;;;;;;5090712;28;20044;-69
2021/03/29 08:42:16;;;;;;;4.68;2.38;;;12.50;72.90;;;;;;5069235;28;20052;-69
2021/03/29 08:44:44;;;;;;;8.30;2.30;;;12.50;72.90;;;;;;5085269;28;20089;-69
2021/03/29 08:47:15;;;;;;;5.32;2.00;;;12.50;72.80;;;;;;5092755;28;20478;-69
2021/03/29 08:49:43;;;;;;;9.45;2.60;;;12.60;73.30;;;;;;5091821;28;20028;-69
2021/03/29 08:52:12;;;;;;;5.03;2.03;;;12.60;72.50;;;;;;5067052;28;20487;-68
2021/03/29 08:54:50;;;;;;;7.50;2.50;;;12.60;72.50;;;;;;5090648;28;20048;-68
2021/03/29 08:57:16;;;;;;;13.35;2.75;;;12.70;72.40;;;;;;5092001;28;20032;-68
2021/03/29 08:59:43;;;;;;;6.78;2.03;;;12.70;72.40;;;;;;5091007;28;20052;-75
2021/03/29 09:02:17;;;;;;;6.32;1.90;;;12.80;72.40;;;;;;5091345;28;20101;-75
2021/03/29 09:04:48;;;;;;;9.40;2.38;;;12.90;72.30;;;;;;5089124;28;20055;-75
2021/03/29 09:07:16;;;;;;;5.20;1.67;;;12.90;71.90;;;;;;5081965;28;20457;-74
2021/03/29 09:09:43;;;;;;;7.75;2.28;;;13.00;71.70;;;;;;5079492;28;20609;-74
2021/03/29 09:12:30;;;;;;;6.20;1.90;;;13.10;71.60;;;;;;5082326;28;20037;-74
2021/03/29 09:14:59;;;;;;;7.40;2.40;;;13.10;71.30;;;;;;5101325;28;20098;-73
2021/03/29 09:17:27;;;;;;;5.18;2.08;;;13.20;71.30;;;;;;5086062;28;20039;-74
2021/03/29 09:19:54;;;;;;;8.38;1.70;;;13.30;71.00;;;;;;5085619;28;20036;-75
2021/03/29 09:22:36;;;;;;;7.50;2.03;;;13.30;70.70;;;;;;5082861;28;20047;-73
2021/03/29 09:25:05;;;;;;;5.38;1.95;;;13.50;70.60;;;;;;5086641;28;20139;-73
2021/03/29 09:27:42;;;;;;;5.63;1.75;;;13.50;70.20;;;;;;5090949;28;20036;-73
2021/03/29 09:30:11;;;;;;;6.10;1.30;;;13.60;70.60;;;;;;5079938;28;20040;-72
2021/03/29 09:32:41;;;;;;;8.18;1.80;;;13.60;69.90;;;;;;5073469;28;20060;-73
2021/03/29 09:35:08;;;;;;;5.80;1.50;;;13.70;69.70;;;;;;5082898;28;20488;-72
2021/03/29 09:37:44;;;;;;;4.05;1.23;;;13.80;69.40;;;;;;5088434;28;20672;-72
2021/03/29 09:40:11;;;;;;;3.47;1.35;;;13.90;69.20;;;;;;5085784;28;20042;-72
2021/03/29 09:42:53;;;;;;;5.32;1.60;;;14.00;68.80;;;;;;5088536;28;20124;-72
2021/03/29 09:45:27;;;;;;;6.75;2.08;;;14.10;68.50;;;;;;5104018;28;20048;-72
2021/03/29 09:48:17;;;;;;;6.32;1.50;;;14.20;67.90;;;;;;5084416;28;20522;-72
2021/03/29 09:50:46;;;;;;;9.18;1.50;;;14.30;67.20;;;;;;5069128;28;20044;-73
2021/03/29 09:53:25;;;;;;;4.78;1.65;;;14.30;67.00;;;;;;5070660;28;20479;-72
2021/03/29 09:55:55;;;;;;;4.70;1.58;;;14.40;67.00;;;;;;5080846;28;20036;-72
2021/03/29 09:58:30;;;;;;;3.92;1.20;;;14.50;66.80;;;;;;5086305;28;20032;-73
2021/03/29 10:01:03;;;;;;;5.22;1.15;;;14.60;66.80;;;;;;5086996;28;20050;-73
2021/03/29 10:03:57;;;;;;;5.00;1.55;;;14.60;66.30;;;;;;5084658;28;20036;-73
2021/03/29 10:06:25;;;;;;;4.65;1.70;;;14.70;65.30;;;;;;5075920;28;20040;-72
2021/03/29 10:09:03;;;;;;;3.92;1.45;;;14.70;65.30;;;;;;5084975;28;20452;-73
2021/03/29 10:11:49;;;;;;;4.68;1.40;;;14.80;64.70;;;;;;5075031;28;20032;-68
2021/03/29 10:14:17;;;;;;;3.55;1.60;;;14.80;64.40;;;;;;5067854;28;20429;-73
2021/03/29 10:16:45;;;;;;;4.15;1.70;;;14.90;64.30;;;;;;5082583;28;20055;-73
2021/03/29 10:19:14;;;;;;;4.97;1.25;;;15.00;63.70;;;;;;5086033;28;20471;-74
2021/03/29 10:22:00;;;;;;;3.97;1.10;;;15.10;63.20;;;;;;5078535;28;20134;-74
2021/03/29 10:24:27;;;;;;;3.70;1.58;;;15.40;62.50;;;;;;5084482;28;20483;-75
2021/03/29 10:27:04;;;;;;;5.22;1.55;;;15.60;62.00;;;;;;5088400;28;20097;-69
2021/03/29 10:29:38;;;;;;;4.18;1.40;;;15.80;61.20;;;;;;5082174;28;20118;-69
2021/03/29 10:32:13;;;;;;;6.55;1.60;;;15.70;61.10;;;;;;5080301;28;20072;-68
2021/03/29 10:34:41;;;;;;;5.45;1.42;;;15.70;60.60;;;;;;5085205;28;20549;-69
2021/03/29 10:37:19;;;;;;;4.32;2.00;;;15.70;60.40;;;;;;5080255;28;20048;-69
2021/03/29 10:39:45;;;;;;;6.57;1.67;;;15.70;60.30;;;;;;5070373;28;20098;-74
2021/03/29 10:42:13;;;;;;;6.03;1.58;;;15.60;60.90;;;;;;5068062;28;20079;-73
2021/03/29 10:44:41;;;;;;;3.80;1.27;;;15.50;60.70;;;;;;5087803;28;20048;-73
2021/03/29 10:47:07;;;;;;;2.67;0.88;;;15.50;60.70;;;;;;5102449;28;20429;-74
2021/03/29 10:49:34;;;;;;;4.68;1.55;;;15.50;60.80;;;;;;5081196;28;20040;-72
2021/03/29 10:52:01;;;;;;;3.72;0.95;;;15.60;61.10;;;;;;5084900;28;20071;-76
2021/03/29 10:54:27;;;;;;;4.18;1.20;;;15.60;61.80;;;;;;5088664;28;20036;-74
2021/03/29 10:56:54;;;;;;;4.97;1.75;;;15.70;61.10;;;;;;5060335;28;20062;-73
2021/03/29 10:59:21;;;;;;;5.60;1.80;;;15.70;60.30;;;;;;5080606;28;20053;-73
2021/03/29 11:01:48;;;;;;;4.15;1.98;;;15.70;59.80;;;;;;5088873;28;20036;-73
2021/03/29 11:04:16;;;;;;;3.40;1.67;;;15.80;59.20;;;;;;5080504;28;20059;-74
2021/03/29 11:06:43;;;;;;;5.20;2.00;;;15.90;58.90;;;;;;5039787;28;20086;-73
2021/03/29 11:09:10;;;;;;;2.42;1.25;;;15.90;58.90;;;;;;5078484;28;20048;-73
2021/03/29 11:11:36;;;;;;;3.40;1.48;;;15.90;59.10;;;;;;5084104;28;20040;-72
2021/03/29 11:14:04;;;;;;;3.67;1.70;;;16.00;59.30;;;;;;5076848;28;20067;-71
2021/03/29 11:16:31;;;;;;;4.05;1.60;;;16.00;59.10;;;;;;5076946;28;20044;-73
2021/03/29 11:18:58;;;;;;;4.85;1.70;;;16.10;59.00;;;;;;5077535;28;20045;-72
2021/03/29 11:21:25;;;;;;;4.43;1.75;;;16.10;58.40;;;;;;5083315;28;20041;-73
2021/03/29 11:23:52;;;;;;;5.47;1.80;;;16.20;58.10;;;;;;5064562;28;20484;-73
2021/03/29 11:26:19;;;;;;;4.60;1.80;;;16.20;57.90;;;;;;5075622;28;20505;-72
2021/03/29 11:28:45;;;;;;;7.20;1.70;;;16.30;57.90;;;;;;5074748;28;20066;-72
2021/03/29 11:31:12;;;;;;;4.05;1.85;;;16.30;57.50;;;;;;5070238;28;20037;-72
2021/03/29 11:33:38;;;;;;;3.67;1.50;;;16.30;57.80;;;;;;5052292;28;20110;-72
2021/03/29 11:36:05;;;;;;;5.13;1.80;;;16.40;57.50;;;;;;5071275;28;20047;-72
2021/03/29 11:38:32;;;;;;;4.97;1.80;;;16.40;56.60;;;;;;5068592;28;20056;-72
2021/03/29 11:40:58;;;;;;;4.40;1.40;;;16.40;56.20;;;;;;5059514;28;20052;-72
2021/03/29 11:43:25;;;;;;;3.17;1.10;;;16.50;56.60;;;;;;5071227;28;20040;-72
2021/03/29 11:45:51;;;;;;;6.63;1.90;;;16.60;56.60;;;;;;5079571;28;20086;-72
2021/03/29 11:48:29;;;;;;;4.60;1.15;;;16.60;56.50;;;;;;5084477;28;20036;-72
2021/03/29 11:50:56;;;;;;;4.68;1.63;;;16.70;56.30;;;;;;5077914;28;20039;-72
2021/03/29 11:53:23;;;;;;;3.80;1.40;;;16.70;55.80;;;;;;5078890;28;20537;-72
2021/03/29 11:55:50;;;;;;;2.88;1.63;;;16.80;55.40;;;;;;5083696;28;20041;-72
2021/03/29 11:58:17;;;;;;;5.10;1.27;;;16.80;55.20;;;;;;5076841;28;20037;-72
2021/03/29 12:03:34;;;;;;;5.95;1.13;;;16.90;54.50;;;;;;5079061;28;20066;-72
2021/03/29 12:06:06;;;;;;;4.05;1.40;;;16.90;53.90;;;;;;5099974;28;20048;-72
2021/03/29 12:09:00;;;;;;;3.00;1.42;;;16.90;53.60;;;;;;5030656;28;20398;-69
2021/03/29 12:14:12;;;;;;;4.03;1.20;;;17.00;54.10;;;;;;5079736;28;20063;-73
2021/03/29 12:16:41;;;;;;;4.40;1.75;;;17.00;53.40;;;;;;5083717;28;20403;-74
2021/03/29 12:19:08;;;;;;;3.97;1.15;;;17.10;53.20;;;;;;5075861;28;20056;-73
2021/03/29 12:21:36;;;;;;;5.07;1.27;;;17.20;53.40;;;;;;5083789;28;20047;-72
2021/03/29 12:24:10;;;;;;;3.65;1.30;;;17.30;53.50;;;;;;5083457;28;20054;-72
2021/03/29 12:26:36;;;;;;;5.47;1.20;;;17.30;52.80;;;;;;5084182;28;20105;-72
2021/03/29 12:29:11;;;;;;;2.75;0.90;;;17.40;53.10;;;;;;5090470;28;20056;-69
2021/03/29 12:31:40;;;;;;;3.13;1.30;;;17.40;52.90;;;;;;5086932;28;20040;-70
2021/03/29 12:34:12;;;;;;;6.70;1.33;;;17.40;52.60;;;;;;5090546;28;20119;-72
2021/03/29 12:36:53;;;;;;;3.15;1.10;;;17.50;52.70;;;;;;5061170;28;20062;-71
2021/03/29 12:39:29;;;;;;;2.70;1.05;;;17.50;52.40;;;;;;5087472;28;20040;-72
2021/03/29 12:41:59;;;;;;;6.32;1.40;;;17.60;52.30;;;;;;5082301;28;20098;-72
2021/03/29 12:44:27;;;;;;;5.15;1.63;;;17.60;51.90;;;;;;5067707;28;20043;-73
2021/03/29 12:46:57;;;;;;;5.47;1.45;;;17.60;51.40;;;;;;5087806;28;20040;-73
2021/03/29 12:49:24;;;;;;;6.57;1.40;;;17.70;50.60;;;;;;5083241;28;20036;-73
2021/03/29 12:51:59;;;;;;;3.00;1.02;;;17.70;50.30;;;;;;5072271;28;20414;-73
2021/03/29 12:54:28;;;;;;;2.38;1.08;;;17.80;50.50;;;;;;5092027;28;20040;-73
2021/03/29 12:56:56;;;;;;;3.28;0.90;;;17.70;50.80;;;;;;5086538;28;20055;-73
2021/03/29 12:59:23;;;;;;;4.68;1.58;;;17.80;51.00;;;;;;5074204;28;20036;-73
2021/03/29 13:01:54;;;;;;;4.88;1.17;;;17.80;51.10;;;;;;5070315;28;20115;-73
2021/03/29 13:04:25;;;;;;;3.80;1.30;;;17.90;50.60;;;;;;5080043;28;20048;-72
2021/03/29 13:12:12;;;;;;;2.30;1.00;;;18.00;49.00;;;;;;5091157;28;20051;-73
2021/03/29 13:15:05;;;;;;;6.68;2.15;;;18.10;48.80;;;;;;5064072;28;20040;-73
2021/03/29 13:17:40;;;;;;;4.07;1.30;;;18.10;46.90;;;;;;5083331;28;20048;-73
2021/03/29 13:20:15;;;;;;;3.42;1.52;;;18.20;46.90;;;;;;5082625;28;20097;-73
2021/03/29 13:22:44;;;;;;;3.63;1.48;;;18.20;46.40;;;;;;5084313;28;20032;-72
2021/03/29 13:25:26;;;;;;;2.85;1.38;;;18.20;47.10;;;;;;5072193;28;20036;-72